Time;durP1;ratioP1;P1;durP2;ratioP2;P2;SDS_P1;SDS_P2;PMS_P1;PMS_P2;Temp;Humidity;BMP_temperature;BMP_pressure;BME280_temperature;BME280_humidity;BME280_pressure;Samples;Min_cycle;Max_cycle;Signal;HPM_P1;HPM_P2
2021/12/28 00:00:22;;;;;;;17.48;12.48;;;;;;;;;;5059531;28;20083;-76
2021/12/28 00:02:49;;;;;;;21.45;14.63;;;;;;;;;;5055128;28;20106;-76
2021/12/28 00:05:17;;;;;;;18.15;9.90;;;6.10;99.90;;;;;;5057872;28;20040;-76
2021/12/28 00:07:43;;;;;;;19.88;14.00;;;;;;;;;;5041246;28;20048;-76
2021/12/28 00:10:10;;;;;;;13.70;9.73;;;;;;;;;;5052467;28;20154;-76
2021/12/28 00:12:38;;;;;;;20.77;14.57;;;;;;;;;;5060760;28;20036;-76
2021/12/28 00:17:59;;;;;;;12.57;9.63;;;;;;;;;;5056833;28;20127;-76
2021/12/28 00:20:38;;;;;;;13.88;9.23;;;6.10;99.90;;;;;;5055872;28;20407;-76
2021/12/28 00:23:10;;;;;;;16.67;12.43;;;6.10;99.90;;;;;;5058946;28;20041;-76
2021/12/28 00:25:36;;;;;;;16.63;12.30;;;;;;;;;;5050211;28;20491;-76
2021/12/28 00:28:03;;;;;;;19.45;14.13;;;;;;;;;;5060442;28;20095;-76
2021/12/28 00:30:29;;;;;;;15.32;9.55;;;;;;;;;;5046966;28;20036;-76
2021/12/28 00:32:56;;;;;;;17.10;13.85;;;;;;;;;;5040417;28;20075;-76
2021/12/28 00:35:31;;;;;;;16.98;13.73;;;;;;;;;;5062937;28;20056;-76
2021/12/28 00:37:57;;;;;;;20.98;15.48;;;;;;;;;;5062546;28;20418;-77
2021/12/28 00:40:23;;;;;;;17.25;12.85;;;;;;;;;;5051501;28;20159;-76
2021/12/28 00:42:50;;;;;;;20.48;13.82;;;;;;;;;;5061727;28;20531;-76
2021/12/28 00:45:16;;;;;;;20.05;13.23;;;6.30;99.90;;;;;;5046977;28;20036;-76
2021/12/28 00:47:43;;;;;;;16.85;11.48;;;;;;;;;;5046014;28;20032;-76
2021/12/28 00:50:10;;;;;;;19.40;12.63;;;;;;;;;;5062039;28;20601;-76
2021/12/28 00:52:36;;;;;;;19.52;13.48;;;;;;;;;;5063011;28;20143;-76
2021/12/28 00:55:03;;;;;;;21.45;13.57;;;;;;;;;;5054043;28;20041;-76
2021/12/28 00:57:29;;;;;;;20.13;14.38;;;;;;;;;;5050998;28;20140;-76
2021/12/28 00:59:55;;;;;;;22.52;15.13;;;;;;;;;;5055443;28;20051;-76
2021/12/28 01:02:22;;;;;;;25.65;15.15;;;;;;;;;;5043604;28;20044;-76
2021/12/28 01:04:48;;;;;;;21.92;15.32;;;;;;;;;;5062850;28;20036;-76
2021/12/28 01:07:14;;;;;;;23.38;16.80;;;;;;;;;;5040428;28;20045;-76
2021/12/28 01:09:42;;;;;;;19.92;13.55;;;;;;;;;;5044745;28;20349;-76
2021/12/28 01:12:09;;;;;;;22.48;16.50;;;;;;;;;;5061088;28;20052;-76
2021/12/28 01:14:35;;;;;;;30.95;17.98;;;;;;;;;;5057708;28;20044;-76
2021/12/28 01:17:02;;;;;;;21.75;15.38;;;;;;;;;;5061203;28;20051;-76
2021/12/28 01:19:29;;;;;;;20.48;13.57;;;;;;;;;;5057696;28;20599;-77
2021/12/28 01:21:55;;;;;;;25.50;16.05;;;;;;;;;;5055107;28;20041;-76
2021/12/28 01:24:21;;;;;;;22.77;12.32;;;;;;;;;;5040263;28;20072;-76
2021/12/28 01:26:48;;;;;;;28.90;17.00;;;;;;;;;;5036976;28;20040;-76
2021/12/28 01:29:14;;;;;;;20.73;13.77;;;;;;;;;;5045023;28;20052;-76
2021/12/28 01:31:40;;;;;;;19.77;11.27;;;;;;;;;;5052746;28;20888;-76
2021/12/28 01:34:07;;;;;;;24.23;14.80;;;;;;;;;;5061754;28;20582;-76
2021/12/28 01:36:33;;;;;;;45.85;13.48;;;;;;;;;;5059689;28;20047;-77
2021/12/28 01:39:00;;;;;;;23.38;15.55;;;;;;;;;;5061664;28;20468;-76
2021/12/28 01:41:26;;;;;;;24.60;10.38;;;;;;;;;;5037999;28;20044;-76
2021/12/28 01:44:01;;;;;;;15.68;8.95;;;;;;;;;;5041282;28;20067;-76
2021/12/28 01:46:27;;;;;;;;;;;;;;;;;;5050519;28;20118;-76
2021/12/28 01:48:53;;;;;;;36.67;18.83;;;;;;;;;;5052443;28;19920;-76
2021/12/28 01:51:21;;;;;;;23.85;15.45;;;;;;;;;;5042993;28;20102;-76
2021/12/28 01:53:49;;;;;;;69.05;15.48;;;;;;;;;;5059097;28;20048;-76
2021/12/28 01:56:20;;;;;;;31.92;12.68;;;;;;;;;;5055988;28;20134;-76
2021/12/28 01:58:46;;;;;;;22.52;12.98;;;;;;;;;;5061210;28;20037;-76
2021/12/28 02:01:13;;;;;;;22.77;15.10;;;;;;;;;;5037667;28;20166;-76
2021/12/28 02:03:41;;;;;;;35.78;12.80;;;6.50;99.90;;;;;;5041967;28;20521;-76
2021/12/28 02:06:07;;;;;;;22.88;16.33;;;;;;;;;;5050789;28;20045;-76
2021/12/28 02:08:34;;;;;;;38.08;13.65;;;;;;;;;;5060289;28;20127;-76
2021/12/28 02:11:00;;;;;;;34.40;15.98;;;;;;;;;;5056305;28;20048;-76
2021/12/28 02:13:27;;;;;;;23.80;15.02;;;;;;;;;;5043884;28;20090;-77
2021/12/28 02:15:56;;;;;;;21.45;13.90;;;;;;;;;;5059493;28;20048;-76
2021/12/28 02:18:23;;;;;;;51.70;17.15;;;;;;;;;;5044195;28;20473;-76
2021/12/28 02:20:50;;;;;;;36.13;15.73;;;;;;;;;;5054102;28;20033;-76
2021/12/28 02:23:16;;;;;;;22.85;9.45;;;;;;;;;;5060184;28;20047;-76
2021/12/28 02:25:43;;;;;;;22.80;14.40;;;;;;;;;;5043468;28;20458;-77
2021/12/28 02:28:10;;;;;;;20.95;13.55;;;;;;;;;;5046127;28;20040;-76
2021/12/28 02:30:38;;;;;;;41.92;16.52;;;;;;;;;;5054173;28;20472;-76
2021/12/28 02:33:05;;;;;;;19.75;9.90;;;;;;;;;;5061588;28;20151;-75
2021/12/28 02:35:32;;;;;;;29.67;17.00;;;6.80;99.90;;;;;;5041966;28;20102;-78
2021/12/28 02:37:58;;;;;;;24.50;15.98;;;;;;;;;;5055799;28;20060;-78
2021/12/28 02:40:27;;;;;;;25.52;16.95;;;6.80;99.90;;;;;;5052826;28;20566;-78
2021/12/28 02:42:54;;;;;;;27.60;15.45;;;;;;;;;;5059692;28;20124;-78
2021/12/28 02:45:23;;;;;;;27.02;13.93;;;6.80;99.90;;;;;;5060137;28;20040;-78
2021/12/28 02:47:50;;;;;;;32.10;15.65;;;;;;;;;;5055648;28;20041;-78
2021/12/28 02:50:39;;;;;;;21.88;14.98;;;;;;;;;;5054129;28;20337;-77
2021/12/28 02:53:06;;;;;;;23.33;14.65;;;;;;;;;;5053411;28;20041;-77
2021/12/28 02:55:33;;;;;;;60.15;15.32;;;7.00;99.90;;;;;;5055734;28;20048;-78
2021/12/28 02:58:06;;;;;;;23.20;8.95;;;6.90;99.90;;;;;;5055361;28;20028;-77
2021/12/28 03:00:32;;;;;;;26.15;12.65;;;;;;;;;;5041477;28;20032;-77
2021/12/28 03:02:59;;;;;;;30.73;15.63;;;;;;;;;;5060347;28;20055;-77
2021/12/28 03:05:26;;;;;;;18.05;11.45;;;6.80;99.90;;;;;;5059602;28;20048;-77
2021/12/28 03:07:52;;;;;;;36.28;10.70;;;;;;;;;;5054488;28;20069;-77
2021/12/28 03:10:18;;;;;;;34.78;12.68;;;;;;;;;;5040863;28;20105;-77
2021/12/28 03:12:44;;;;;;;27.42;11.82;;;;;;;;;;5052615;28;20044;-77
2021/12/28 03:15:11;;;;;;;20.35;8.75;;;7.20;99.90;;;;;;5051371;28;20040;-77
2021/12/28 03:17:39;;;;;;;30.40;8.75;;;7.00;99.90;;;;;;5051942;28;20105;-77
2021/12/28 03:20:07;;;;;;;28.42;8.75;;;6.80;99.90;;;;;;5056278;28;20422;-77
2021/12/28 03:22:37;;;;;;;33.45;9.73;;;;;;;;;;5061184;28;20557;-77
2021/12/28 03:25:04;;;;;;;40.50;10.02;;;;;;;;;;5059018;28;20570;-77
2021/12/28 03:27:31;;;;;;;49.13;12.90;;;;;;;;;;5042587;28;20605;-77
2021/12/28 03:29:57;;;;;;;31.98;10.60;;;;;;;;;;5037250;28;20089;-77
2021/12/28 03:32:23;;;;;;;202.48;24.40;;;6.80;99.90;;;;;;5057591;28;20075;-77
2021/12/28 03:34:49;;;;;;;36.72;8.95;;;;;;;;;;5057815;28;20040;-77
2021/12/28 03:37:16;;;;;;;50.15;11.73;;;;;;;;;;5039361;28;20080;-78
2021/12/28 03:39:42;;;;;;;35.70;10.85;;;6.60;99.90;;;;;;5060182;28;20513;-77
2021/12/28 03:42:08;;;;;;;40.05;11.70;;;7.00;99.90;;;;;;5056560;28;20052;-78
2021/12/28 03:44:35;;;;;;;21.65;7.70;;;;;;;;;;5060652;28;20041;-76
2021/12/28 03:47:01;;;;;;;23.33;9.00;;;;;;;;;;5038477;28;20040;-76
2021/12/28 03:49:28;;;;;;;14.10;6.68;;;;;;;;;;5052442;28;20041;-76
2021/12/28 03:51:54;;;;;;;26.10;9.70;;;;;;;;;;5057114;28;20409;-75
2021/12/28 03:54:20;;;;;;;69.78;13.48;;;;;;;;;;5039994;28;20068;-76
2021/12/28 03:56:46;;;;;;;26.80;7.45;;;;;;;;;;5060085;28;20037;-75
2021/12/28 03:59:12;;;;;;;25.23;10.90;;;;;;;;;;5057242;28;20045;-75
2021/12/28 04:01:38;;;;;;;19.10;8.00;;;7.50;99.90;;;;;;5045850;28;20044;-75
2021/12/28 04:04:04;;;;;;;18.17;7.55;;;6.70;99.90;;;;;;5059391;28;20543;-75
2021/12/28 04:06:31;;;;;;;22.48;9.43;;;;;;;;;;5052507;28;20115;-75
2021/12/28 04:08:59;;;;;;;31.30;10.93;;;;;;;;;;5062382;28;20048;-75
2021/12/28 04:11:26;;;;;;;103.55;13.73;;;;;;;;;;5043770;28;20150;-75
2021/12/28 04:13:57;;;;;;;114.82;11.55;;;;;;;;;;5056759;28;20072;-75
2021/12/28 04:16:23;;;;;;;106.18;12.98;;;;;;;;;;5042254;28;20040;-76
2021/12/28 04:18:50;;;;;;;81.10;12.02;;;6.40;99.90;;;;;;5058122;28;20143;-76
2021/12/28 04:21:17;;;;;;;39.80;9.15;;;;;;;;;;5060979;28;20044;-75
2021/12/28 04:23:43;;;;;;;17.00;8.77;;;;;;;;;;5054455;28;20332;-75
2021/12/28 04:26:10;;;;;;;26.55;8.90;;;;;;;;;;5061310;28;20044;-76
2021/12/28 04:28:36;;;;;;;44.42;10.00;;;;;;;;;;5041602;28;20052;-75
2021/12/28 04:31:02;;;;;;;22.35;9.98;;;;;;;;;;5042012;28;20543;-75
2021/12/28 04:33:28;;;;;;;156.77;16.88;;;;;;;;;;5058618;28;20529;-75
2021/12/28 04:35:54;;;;;;;103.53;11.52;;;;;;;;;;5041239;28;20102;-75
2021/12/28 04:38:20;;;;;;;112.60;12.38;;;;;;;;;;5047139;28;20392;-76
2021/12/28 04:40:46;;;;;;;169.25;14.90;;;;;;;;;;5044637;28;20036;-76
2021/12/28 04:43:15;;;;;;;104.97;9.60;;;;;;;;;;5044816;28;20056;-76
2021/12/28 04:45:41;;;;;;;92.32;16.60;;;6.10;99.90;;;;;;5060235;28;20041;-75
2021/12/28 04:48:08;;;;;;;163.90;14.88;;;;;;;;;;5045584;28;20044;-75
2021/12/28 04:50:38;;;;;;;109.88;10.35;;;;;;;;;;5045542;28;20040;-76
2021/12/28 04:53:09;;;;;;;32.30;7.50;;;;;;;;;;5057141;28;20139;-76
2021/12/28 04:55:36;;;;;;;79.50;9.15;;;;;;;;;;5042484;28;20503;-76
2021/12/28 04:58:02;;;;;;;305.90;22.35;;;6.60;99.90;;;;;;5063533;28;20033;-76
2021/12/28 05:00:28;;;;;;;165.95;13.85;;;6.50;99.90;;;;;;5061963;28;20036;-76
2021/12/28 05:02:54;;;;;;;136.35;14.48;;;;;;;;;;5063386;28;20411;-76
2021/12/28 05:05:20;;;;;;;181.00;18.00;;;;;;;;;;5062089;28;20032;-76
2021/12/28 05:07:46;;;;;;;90.65;13.18;;;6.50;99.90;;;;;;5060369;28;20033;-76
2021/12/28 05:10:12;;;;;;;134.50;15.93;;;6.10;99.90;;;;;;5061372;28;20115;-76
2021/12/28 05:12:39;;;;;;;34.67;10.00;;;;;;;;;;5046126;28;20037;-76
2021/12/28 05:15:06;;;;;;;19.88;8.98;;;;;;;;;;5060389;28;20123;-77
2021/12/28 05:17:33;;;;;;;21.27;8.85;;;6.70;99.90;;;;;;5060478;28;20052;-76
2021/12/28 05:19:59;;;;;;;27.48;9.55;;;;;;;;;;5043453;28;20043;-76
2021/12/28 05:22:26;;;;;;;20.42;8.10;;;;;;;;;;5061234;28;20036;-77
2021/12/28 05:24:52;;;;;;;27.60;9.15;;;;;;;;;;5058681;28;20119;-77
2021/12/28 05:27:18;;;;;;;29.65;11.15;;;;;;;;;;5059106;28;20036;-77
2021/12/28 05:29:44;;;;;;;37.05;10.65;;;;;;;;;;5056866;28;20308;-77
2021/12/28 05:32:10;;;;;;;17.90;8.77;;;;;;;;;;5058763;28;20055;-76
2021/12/28 05:34:36;;;;;;;18.75;8.88;;;;;;;;;;5056029;28;20056;-77
2021/12/28 05:37:03;;;;;;;20.27;8.95;;;;;;;;;;5051789;28;20534;-76
2021/12/28 05:39:29;;;;;;;21.00;9.05;;;;;;;;;;5060442;28;20404;-76
2021/12/28 05:41:55;;;;;;;20.20;9.88;;;;;;;;;;5059720;28;20857;-76
2021/12/28 05:44:23;;;;;;;16.20;8.55;;;;;;;;;;5060994;28;20040;-76
2021/12/28 05:46:50;;;;;;;18.48;7.80;;;;;;;;;;5060703;28;20048;-76
2021/12/28 05:49:17;;;;;;;15.45;8.52;;;;;;;;;;5055938;28;20048;-79
2021/12/28 05:51:43;;;;;;;17.38;6.47;;;;;;;;;;5064537;28;20508;-76
2021/12/28 05:54:10;;;;;;;22.02;9.23;;;;;;;;;;5053691;28;20063;-76
2021/12/28 05:56:36;;;;;;;30.58;11.85;;;;;;;;;;5047283;28;20106;-76
2021/12/28 05:59:03;;;;;;;20.35;9.30;;;;;;;;;;5061902;28;20043;-76
2021/12/28 06:01:29;;;;;;;13.95;7.97;;;;;;;;;;5033329;28;20114;-75
2021/12/28 06:03:55;;;;;;;21.92;10.05;;;;;;;;;;5037803;28;20032;-78
2021/12/28 06:06:21;;;;;;;15.98;8.20;;;;;;;;;;5056847;28;20056;-78
2021/12/28 06:08:47;;;;;;;21.35;8.65;;;;;;;;;;5059393;28;20560;-76
2021/12/28 06:11:14;;;;;;;27.40;11.65;;;;;;;;;;5059568;28;20257;-76
2021/12/28 06:13:40;;;;;;;15.55;7.50;;;;;;;;;;5060935;28;20041;-76
2021/12/28 06:16:08;;;;;;;12.30;6.95;;;;;;;;;;5057955;28;20159;-76
2021/12/28 06:18:34;;;;;;;13.68;7.65;;;;;;;;;;5012812;28;1237648;-76
2021/12/28 06:21:00;;;;;;;12.52;7.13;;;;;;;;;;5044304;28;20051;-76
2021/12/28 06:23:26;;;;;;;18.83;8.82;;;;;;;;;;5050293;28;20764;-76
2021/12/28 06:25:52;;;;;;;14.40;7.72;;;;;;;;;;5058867;28;20062;-76
2021/12/28 06:28:18;;;;;;;19.52;6.55;;;;;;;;;;5054316;28;20056;-76
2021/12/28 06:30:45;;;;;;;17.95;8.57;;;;;;;;;;5059157;28;20123;-76
2021/12/28 06:33:11;;;;;;;17.83;8.75;;;;;;;;;;5051597;28;20527;-76
2021/12/28 06:35:37;;;;;;;21.77;10.07;;;;;;;;;;5057436;28;20079;-76
2021/12/28 06:38:04;;;;;;;20.90;10.32;;;;;;;;;;5039314;28;20564;-76
2021/12/28 06:40:30;;;;;;;25.20;10.40;;;;;;;;;;5060288;28;20047;-76
2021/12/28 06:42:56;;;;;;;15.43;9.10;;;;;;;;;;5060457;28;20424;-76
2021/12/28 06:45:22;;;;;;;23.10;10.73;;;6.30;99.90;;;;;;5042619;28;21128;-75
2021/12/28 06:47:49;;;;;;;25.67;13.35;;;;;;;;;;5038328;28;20041;-76
2021/12/28 06:50:15;;;;;;;17.05;10.93;;;;;;;;;;5043213;28;20045;-76
2021/12/28 06:52:42;;;;;;;19.88;9.32;;;;;;;;;;5054050;28;20063;-78
2021/12/28 06:55:10;;;;;;;14.05;8.60;;;6.50;99.90;;;;;;5055166;28;20052;-76
2021/12/28 06:57:36;;;;;;;19.95;9.65;;;6.30;99.90;;;;;;5041365;28;20089;-76
2021/12/28 07:00:05;;;;;;;19.38;10.10;;;;;;;;;;5055652;28;20070;-77
2021/12/28 07:02:31;;;;;;;19.52;10.25;;;;;;;;;;5068149;28;20565;-77
2021/12/28 07:04:57;;;;;;;21.88;10.75;;;;;;;;;;5060378;28;20064;-77
2021/12/28 07:07:23;;;;;;;24.98;13.00;;;;;;;;;;5061362;28;20036;-77
2021/12/28 07:09:49;;;;;;;19.77;9.23;;;;;;;;;;5041130;28;20569;-77
2021/12/28 07:12:15;;;;;;;16.17;9.13;;;;;;;;;;5056628;28;20122;-77
2021/12/28 07:14:41;;;;;;;17.20;9.40;;;;;;;;;;5042756;28;20044;-77
2021/12/28 07:17:08;;;;;;;16.15;9.20;;;;;;;;;;5058397;28;20047;-77
2021/12/28 07:19:34;;;;;;;16.30;8.10;;;;;;;;;;5050253;28;20084;-77
2021/12/28 07:22:00;;;;;;;21.45;9.95;;;;;;;;;;5060518;28;20043;-77
2021/12/28 07:24:26;;;;;;;20.88;11.30;;;;;;;;;;5058485;28;20064;-77
2021/12/28 07:26:53;;;;;;;17.77;8.55;;;;;;;;;;5040873;28;20040;-77
2021/12/28 07:29:20;;;;;;;23.08;12.10;;;;;;;;;;5050317;28;20511;-76
2021/12/28 07:31:46;;;;;;;21.73;11.50;;;;;;;;;;5056422;28;20095;-76
2021/12/28 07:34:12;;;;;;;13.88;8.65;;;;;;;;;;5055420;28;20040;-76
2021/12/28 07:36:38;;;;;;;14.18;9.38;;;;;;;;;;5036436;28;20051;-76
2021/12/28 07:39:06;;;;;;;14.82;7.70;;;;;;;;;;5061371;28;20036;-77
2021/12/28 07:41:32;;;;;;;13.93;8.63;;;;;;;;;;5052655;28;20526;-76
2021/12/28 07:43:59;;;;;;;17.33;8.32;;;;;;;;;;5041907;28;20133;-76
2021/12/28 07:46:25;;;;;;;11.70;6.55;;;;;;;;;;5056091;28;20098;-77
2021/12/28 07:48:51;;;;;;;22.70;7.53;;;;;;;;;;5058416;28;20044;-76
2021/12/28 07:51:17;;;;;;;14.05;6.70;;;;;;;;;;5053066;28;20075;-77
2021/12/28 07:53:43;;;;;;;12.57;6.55;;;;;;;;;;5055058;28;20407;-77
2021/12/28 07:56:09;;;;;;;17.23;7.57;;;;;;;;;;5058905;28;20135;-77
2021/12/28 07:58:35;;;;;;;11.10;6.32;;;;;;;;;;5052689;28;20036;-77
2021/12/28 08:01:01;;;;;;;10.95;5.97;;;;;;;;;;5058494;28;20040;-77
2021/12/28 08:03:27;;;;;;;13.63;6.43;;;;;;;;;;5064113;28;20567;-77
2021/12/28 08:05:53;;;;;;;15.10;6.38;;;;;;;;;;5060413;28;20033;-77
2021/12/28 08:08:20;;;;;;;12.00;7.07;;;;;;;;;;5042078;28;20328;-77
2021/12/28 08:10:46;;;;;;;8.25;5.63;;;;;;;;;;5058146;28;20047;-77
2021/12/28 08:13:12;;;;;;;11.02;6.53;;;;;;;;;;5049987;28;20505;-77
2021/12/28 08:15:39;;;;;;;17.50;7.18;;;;;;;;;;5059934;28;20123;-77
2021/12/28 08:18:07;;;;;;;11.13;7.10;;;7.00;99.90;;;;;;5041349;28;20059;-77
2021/12/28 08:20:34;;;;;;;17.45;7.53;;;;;;;;;;5035829;28;20506;-77
2021/12/28 08:23:00;;;;;;;19.77;7.60;;;;;;;;;;5046116;28;20094;-77
2021/12/28 08:25:26;;;;;;;22.23;8.40;;;;;;;;;;5049367;28;20530;-77
2021/12/28 08:27:53;;;;;;;9.73;5.30;;;;;;;;;;5056180;28;20033;-77
2021/12/28 08:30:20;;;;;;;14.07;5.85;;;;;;;;;;5049966;28;20041;-77
2021/12/28 08:32:46;;;;;;;12.18;5.13;;;;;;;;;;5041264;28;20051;-77
2021/12/28 08:35:15;;;;;;;12.70;7.45;;;7.20;99.90;;;;;;5043198;28;20084;-77
2021/12/28 08:37:42;;;;;;;10.55;5.07;;;7.40;99.90;;;;;;5057492;28;20533;-76
2021/12/28 08:40:10;;;;;;;18.25;7.30;;;;;;;;;;5041706;28;20583;-76
2021/12/28 08:42:37;;;;;;;10.98;5.03;;;;;;;;;;5055852;28;20044;-74
2021/12/28 08:45:04;;;;;;;15.85;7.90;;;;;;;;;;5054655;28;20433;-74
2021/12/28 08:47:30;;;;;;;11.73;6.45;;;;;;;;;;5061913;28;20041;-74
2021/12/28 08:49:58;;;;;;;15.32;7.13;;;7.40;99.90;;;;;;5045795;28;20196;-75
2021/12/28 08:52:24;;;;;;;17.52;6.47;;;;;;;;;;5044119;28;20078;-76
2021/12/28 08:54:51;;;;;;;9.73;4.28;;;;;;;;;;5053790;28;20043;-76
2021/12/28 08:57:18;;;;;;;8.80;3.85;;;;;;;;;;5058533;28;20527;-76
2021/12/28 08:59:44;;;;;;;11.30;4.93;;;;;;;;;;5044876;28;20068;-76
2021/12/28 09:02:10;;;;;;;12.65;5.68;;;;;;;;;;5042461;28;20555;-76
2021/12/28 09:04:42;;;;;;;8.38;4.32;;;;;;;;;;5061996;28;20385;-76
2021/12/28 09:07:08;;;;;;;15.90;5.45;;;;;;;;;;5060095;28;20413;-75
2021/12/28 09:09:35;;;;;;;9.88;5.68;;;;;;;;;;5059698;28;20548;-76
2021/12/28 09:12:01;;;;;;;10.85;4.80;;;;;;;;;;5062906;28;20256;-76
2021/12/28 09:14:27;;;;;;;14.05;5.32;;;;;;;;;;5037111;28;20490;-75
2021/12/28 09:16:53;;;;;;;13.38;5.93;;;;;;;;;;5058941;28;20186;-76
2021/12/28 09:19:19;;;;;;;15.38;6.70;;;;;;;;;;5062760;28;20056;-75
2021/12/28 09:21:45;;;;;;;12.88;5.60;;;;;;;;;;5059637;28;20040;-75
2021/12/28 09:24:11;;;;;;;16.77;6.40;;;;;;;;;;5061264;28;20577;-75
2021/12/28 09:26:37;;;;;;;11.45;5.20;;;;;;;;;;5058049;28;20040;-76
2021/12/28 09:29:04;;;;;;;14.68;6.35;;;;;;;;;;5057944;28;20051;-76
2021/12/28 09:31:30;;;;;;;12.05;5.70;;;;;;;;;;5040110;28;20676;-75
2021/12/28 09:33:57;;;;;;;16.77;5.72;;;;;;;;;;5058918;28;20041;-75
2021/12/28 09:36:23;;;;;;;19.83;6.40;;;;;;;;;;5057420;28;20552;-76
2021/12/28 09:38:49;;;;;;;18.17;6.28;;;;;;;;;;5059855;28;20636;-76
2021/12/28 09:41:16;;;;;;;16.25;6.68;;;;;;;;;;5059952;28;20044;-76
2021/12/28 09:43:42;;;;;;;14.98;6.72;;;;;;;;;;5061514;28;20041;-76
2021/12/28 09:46:08;;;;;;;13.63;7.05;;;;;;;;;;5040083;28;20036;-76
2021/12/28 09:48:35;;;;;;;16.15;7.43;;;;;;;;;;5058605;28;20052;-75
2021/12/28 09:51:01;;;;;;;12.70;6.13;;;;;;;;;;5053831;28;20076;-76
2021/12/28 09:53:27;;;;;;;12.57;7.45;;;;;;;;;;5058363;28;20121;-76
2021/12/28 09:55:53;;;;;;;15.18;7.30;;;;;;;;;;5052031;28;20486;-75
2021/12/28 09:58:20;;;;;;;10.20;6.32;;;;;;;;;;5056664;28;20130;-75
2021/12/28 10:00:46;;;;;;;18.55;7.43;;;7.60;99.90;;;;;;5062478;28;20052;-76
2021/12/28 10:03:12;;;;;;;17.27;6.82;;;;;;;;;;5041966;28;20082;-76
2021/12/28 10:05:39;;;;;;;12.93;7.03;;;;;;;;;;5062841;28;20071;-76
2021/12/28 10:08:06;;;;;;;14.70;6.63;;;;;;;;;;5059965;28;20032;-77
2021/12/28 10:10:36;;;;;;;13.98;6.40;;;7.60;99.90;;;;;;5060309;28;20055;-76
2021/12/28 10:13:04;;;;;;;15.40;7.78;;;;;;;;;;5042600;28;20085;-76
2021/12/28 10:15:32;;;;;;;10.10;5.88;;;;;;;;;;5055306;28;20041;-77
2021/12/28 10:18:01;;;;;;;12.82;6.43;;;7.50;99.90;;;;;;5055357;28;20140;-78
2021/12/28 10:20:46;;;;;;;13.43;5.72;;;7.70;99.90;;;;;;5056852;28;20143;-77
2021/12/28 10:23:14;;;;;;;12.68;7.10;;;;;;;;;;5060725;28;20120;-75
2021/12/28 10:25:47;;;;;;;10.00;4.47;;;7.80;99.90;;;;;;5039881;28;20037;-76
2021/12/28 10:28:17;;;;;;;10.10;5.43;;;7.70;99.90;;;;;;5040374;28;20119;-76
2021/12/28 10:30:46;;;;;;;11.07;7.03;;;7.70;99.90;;;;;;5043321;28;20080;-77
2021/12/28 10:33:15;;;;;;;13.82;7.60;;;;;;;;;;5041449;28;20802;-76
2021/12/28 10:35:44;;;;;;;10.52;6.20;;;7.70;99.90;;;;;;5053663;28;20461;-79
2021/12/28 10:38:16;;;;;;;12.43;6.78;;;7.80;99.90;;;;;;5058617;28;20033;-79
2021/12/28 10:40:48;;;;;;;11.77;5.20;;;7.90;99.90;;;;;;5030922;28;20048;-78
2021/12/28 10:43:15;;;;;;;13.20;7.45;;;;;;;;;;5040975;28;20388;-78
2021/12/28 10:45:52;;;;;;;7.32;5.43;;;7.70;99.90;;;;;;5057423;28;20049;-78
2021/12/28 10:48:22;;;;;;;10.55;5.25;;;7.90;99.90;;;;;;5039611;28;20076;-78
2021/12/28 10:50:51;;;;;;;10.85;6.22;;;;;;;;;;5058624;28;20037;-78
2021/12/28 10:53:20;;;;;;;9.00;4.85;;;;;;;;;;5052325;28;20711;-78
2021/12/28 10:55:54;;;;;;;9.57;4.45;;;7.90;99.90;;;;;;5054167;28;20040;-78
2021/12/28 10:58:25;;;;;;;12.18;4.57;;;;;;;;;;5034297;28;20051;-79
2021/12/28 11:00:51;;;;;;;8.40;4.40;;;;;;;;;;5040777;28;20043;-78
2021/12/28 11:03:19;;;;;;;12.35;4.32;;;;;;;;;;5042283;28;20480;-78
2021/12/28 11:05:48;;;;;;;5.57;4.10;;;8.00;99.90;;;;;;5052064;28;20055;-77
2021/12/28 11:08:15;;;;;;;5.65;4.75;;;;;;;;;;5056616;28;20138;-78
2021/12/28 11:10:51;;;;;;;7.07;4.30;;;7.90;99.90;;;;;;5055233;28;20040;-77
2021/12/28 11:13:19;;;;;;;6.60;4.00;;;;;;;;;;5057191;28;20101;-78
2021/12/28 11:15:46;;;;;;;8.60;4.55;;;;;;;;;;5053992;28;20555;-78
2021/12/28 11:18:23;;;;;;;8.32;4.65;;;8.60;99.90;;;;;;5054099;28;20060;-78
2021/12/28 11:20:50;;;;;;;6.75;4.22;;;;;;;;;;5038591;28;20090;-78
2021/12/28 11:23:19;;;;;;;4.18;3.45;;;8.00;99.90;;;;;;5057603;28;20415;-78
2021/12/28 11:25:46;;;;;;;6.00;4.28;;;;;;;;;;5031959;28;20048;-78
2021/12/28 11:28:21;;;;;;;6.75;4.05;;;7.80;99.90;;;;;;5056933;28;20491;-79
2021/12/28 11:31:04;;;;;;;5.85;4.10;;;8.10;99.90;;;;;;5038655;28;20723;-78
2021/12/28 11:34:03;;;;;;;5.03;3.88;;;8.30;99.90;;;;;;5049695;28;20050;-79
2021/12/28 11:36:56;;;;;;;5.20;3.25;;;8.10;99.90;;;;;;5056148;28;20140;-78
2021/12/28 11:39:25;;;;;;;4.40;2.35;;;;;;;;;;5055384;28;20051;-79
2021/12/28 11:41:51;;;;;;;3.50;2.38;;;8.20;99.90;;;;;;5055102;28;20048;-78
2021/12/28 11:44:19;;;;;;;4.90;2.58;;;;;;;;;;5051793;28;20569;-78
2021/12/28 11:46:45;;;;;;;4.07;2.10;;;;;;;;;;5052685;28;20032;-78
2021/12/28 11:49:13;;;;;;;2.30;1.98;;;;;;;;;;5036449;28;20056;-78
2021/12/28 11:51:40;;;;;;;3.45;2.70;;;;;;;;;;5046251;28;20052;-78
2021/12/28 11:54:08;;;;;;;2.88;2.00;;;;;;;;;;5039182;28;20036;-79
2021/12/28 11:56:40;;;;;;;4.35;2.90;;;8.20;99.90;;;;;;5058763;28;20052;-78
2021/12/28 11:59:16;;;;;;;3.42;2.13;;;8.00;99.90;;;;;;5059639;28;20542;-80
2021/12/28 12:01:51;;;;;;;3.95;2.70;;;8.00;99.90;;;;;;5041719;28;20095;-78
2021/12/28 12:04:29;;;;;;;;;;;8.20;99.90;;;;;;5056324;28;20411;-79
2021/12/28 12:07:05;;;;;;;3.47;2.45;;;8.20;99.90;;;;;;5040932;28;19921;-78
2021/12/28 12:09:32;;;;;;;3.40;2.30;;;;;;;;;;5047959;28;20060;-79
2021/12/28 12:12:12;;;;;;;2.72;1.92;;;;;;;;;;5057074;28;20556;-78
2021/12/28 12:14:55;;;;;;;3.35;2.13;;;8.20;99.90;;;;;;5053377;28;20581;-79
2021/12/28 12:17:30;;;;;;;4.32;2.30;;;8.20;99.90;;;;;;5043412;28;20539;-79
2021/12/28 12:19:57;;;;;;;2.72;1.92;;;8.20;99.90;;;;;;5060580;28;20044;-79
2021/12/28 12:22:34;;;;;;;2.25;1.90;;;8.30;99.90;;;;;;5040161;28;20037;-79
2021/12/28 12:25:04;;;;;;;2.30;1.85;;;8.20;99.90;;;;;;5062938;28;20040;-79
2021/12/28 12:27:48;;;;;;;3.50;2.00;;;8.30;99.90;;;;;;5051060;28;20056;-79
2021/12/28 12:30:17;;;;;;;3.22;2.42;;;8.30;99.90;;;;;;5055601;28;20128;-78
2021/12/28 12:33:07;;;;;;;3.47;2.60;;;8.40;99.90;;;;;;5045794;28;20500;-80
2021/12/28 12:35:39;;;;;;;3.72;2.38;;;;;;;;;;5057120;28;20098;-79
2021/12/28 12:38:16;;;;;;;3.03;2.20;;;8.40;99.90;;;;;;5051883;28;20041;-80
2021/12/28 12:41:01;;;;;;;2.92;1.92;;;;;;;;;;5041138;28;20056;-79
2021/12/28 12:43:27;;;;;;;4.07;2.50;;;;;;;;;;5045781;28;20044;-79
2021/12/28 12:45:57;;;;;;;3.45;2.35;;;;;;;;;;5055184;28;20045;-79
2021/12/28 12:48:41;;;;;;;2.90;2.15;;;8.50;99.90;;;;;;5052697;28;20048;-81
2021/12/28 12:51:18;;;;;;;4.30;2.47;;;8.70;99.90;;;;;;5056178;28;20041;-79
2021/12/28 12:53:50;;;;;;;3.05;1.67;;;8.50;99.90;;;;;;5036539;28;20093;-79
2021/12/28 12:56:21;;;;;;;2.20;1.45;;;8.50;99.90;;;;;;5060411;28;20114;-79
2021/12/28 12:58:49;;;;;;;2.88;1.70;;;;;;;;;;5052223;28;20040;-79
2021/12/28 13:01:25;;;;;;;3.55;2.33;;;8.50;99.90;;;;;;5059539;28;20056;-79
2021/12/28 13:03:56;;;;;;;4.43;2.20;;;8.40;99.90;;;;;;5058067;28;20499;-79
2021/12/28 13:06:45;;;;;;;3.50;2.05;;;8.50;99.90;;;;;;5043301;28;20041;-79
2021/12/28 13:09:15;;;;;;;3.47;2.17;;;;;;;;;;5040981;28;20048;-79
2021/12/28 13:11:42;;;;;;;3.88;2.40;;;;;;;;;;5061595;28;20051;-79
2021/12/28 13:14:09;;;;;;;3.38;2.90;;;;;;;;;;5061112;28;20059;-79
2021/12/28 13:16:35;;;;;;;2.13;1.70;;;;;;;;;;5036571;28;20044;-79
2021/12/28 13:19:16;;;;;;;3.53;2.67;;;8.50;99.90;;;;;;5058150;28;20056;-79
2021/12/28 13:21:56;;;;;;;3.35;2.60;;;;;;;;;;5055068;28;20206;-79
2021/12/28 13:24:23;;;;;;;4.20;2.30;;;;;;;;;;5037207;28;20048;-79
2021/12/28 13:26:57;;;;;;;3.97;2.20;;;8.50;99.90;;;;;;5034594;28;20487;-80
2021/12/28 13:29:31;;;;;;;3.60;2.60;;;8.40;99.90;;;;;;5037913;28;20045;-80
2021/12/28 13:32:24;;;;;;;4.47;2.13;;;8.50;99.90;;;;;;5056652;28;20465;-79
2021/12/28 13:35:05;;;;;;;2.97;1.83;;;8.60;99.90;;;;;;5055354;28;20080;-79
2021/12/28 13:37:39;;;;;;;3.25;2.35;;;8.50;99.90;;;;;;5040912;28;20090;-80
2021/12/28 13:40:45;;;;;;;2.85;2.08;;;8.60;99.90;;;;;;5041491;28;20044;-80
2021/12/28 13:43:11;;;;;;;;;;;;;;;;;;5059852;28;20049;-80
2021/12/28 13:45:40;;;;;;;3.22;2.92;;;8.60;99.90;;;;;;5037246;28;19916;-79
2021/12/28 13:48:18;;;;;;;4.47;3.00;;;8.70;99.90;;;;;;5036797;28;20574;-80
2021/12/28 13:50:52;;;;;;;4.07;3.00;;;8.60;99.90;;;;;;5039110;28;20519;-81
2021/12/28 13:53:19;;;;;;;4.47;3.40;;;;;;;;;;5055805;28;20071;-79
2021/12/28 13:55:56;;;;;;;5.13;3.90;;;;;;;;;;5058766;28;20559;-81
2021/12/28 13:58:24;;;;;;;3.55;2.72;;;8.60;99.90;;;;;;5056711;28;20076;-80
2021/12/28 14:00:52;;;;;;;3.25;2.90;;;8.50;99.90;;;;;;5055523;28;20037;-80
2021/12/28 14:03:21;;;;;;;2.28;1.98;;;;;;;;;;5060919;28;20525;-79
2021/12/28 14:05:48;;;;;;;4.03;2.38;;;;;;;;;;5045302;28;20040;-79
2021/12/28 14:08:16;;;;;;;3.28;2.75;;;8.50;99.90;;;;;;5042526;28;20044;-79